sensor_id;sensor_type;location;lat;lon;timestamp;P1;durP1;ratioP1;P2;durP2;ratioP2
38779;SDS011;29273;49.962;9.768;2022-08-11T00:01:24;1.33;;;1.00;;
38779;SDS011;29273;49.962;9.768;2022-08-11T00:03:56;1.00;;;0.95;;
38779;SDS011;29273;49.962;9.768;2022-08-11T00:06:27;0.98;;;0.90;;
38779;SDS011;29273;49.962;9.768;2022-08-11T00:08:55;1.95;;;1.10;;
38779;SDS011;29273;49.962;9.768;2022-08-11T00:11:30;1.27;;;1.05;;
38779;SDS011;29273;49.962;9.768;2022-08-11T00:13:58;1.23;;;1.13;;
38779;SDS011;29273;49.962;9.768;2022-08-11T00:16:27;1.15;;;1.05;;
38779;SDS011;29273;49.962;9.768;2022-08-11T00:18:54;0.80;;;0.70;;
38779;SDS011;29273;49.962;9.768;2022-08-11T00:21:21;1.40;;;1.10;;
38779;SDS011;29273;49.962;9.768;2022-08-11T00:23:52;1.20;;;1.00;;
38779;SDS011;29273;49.962;9.768;2022-08-11T00:26:20;1.00;;;0.93;;
38779;SDS011;29273;49.962;9.768;2022-08-11T00:28:47;1.85;;;0.80;;
38779;SDS011;29273;49.962;9.768;2022-08-11T00:31:23;1.20;;;1.10;;
38779;SDS011;29273;49.962;9.768;2022-08-11T00:33:53;1.25;;;0.90;;
38779;SDS011;29273;49.962;9.768;2022-08-11T00:36:21;1.38;;;1.10;;
38779;SDS011;29273;49.962;9.768;2022-08-11T00:38:51;1.25;;;1.15;;
38779;SDS011;29273;49.962;9.768;2022-08-11T01:00:16;2.28;;;1.08;;
38779;SDS011;29273;49.962;9.768;2022-08-11T01:03:09;1.48;;;1.20;;
38779;SDS011;29273;49.962;9.768;2022-08-11T01:05:47;1.42;;;1.00;;
38779;SDS011;29273;49.962;9.768;2022-08-11T01:14:14;1.10;;;1.00;;
38779;SDS011;29273;49.962;9.768;2022-08-11T01:20:30;2.17;;;1.08;;
38779;SDS011;29273;49.962;9.768;2022-08-11T01:46:32;1.58;;;1.10;;
38779;SDS011;29273;49.962;9.768;2022-08-11T01:49:14;1.30;;;1.15;;
38779;SDS011;29273;49.962;9.768;2022-08-11T01:54:31;1.20;;;1.10;;
38779;SDS011;29273;49.962;9.768;2022-08-11T01:57:10;1.63;;;1.20;;
38779;SDS011;29273;49.962;9.768;2022-08-11T01:59:44;1.25;;;1.15;;
38779;SDS011;29273;49.962;9.768;2022-08-11T02:05:17;1.25;;;1.13;;
38779;SDS011;29273;49.962;9.768;2022-08-11T02:10:40;1.73;;;1.42;;
38779;SDS011;29273;49.962;9.768;2022-08-11T02:13:39;1.38;;;1.10;;
38779;SDS011;29273;49.962;9.768;2022-08-11T02:18:51;1.38;;;1.20;;
38779;SDS011;29273;49.962;9.768;2022-08-11T02:21:49;1.40;;;1.10;;
38779;SDS011;29273;49.962;9.768;2022-08-11T02:24:44;1.67;;;1.00;;
38779;SDS011;29273;49.962;9.768;2022-08-11T02:27:26;1.67;;;1.05;;
38779;SDS011;29273;49.962;9.768;2022-08-11T02:30:13;1.20;;;1.10;;
38779;SDS011;29273;49.962;9.768;2022-08-11T02:51:03;1.30;;;1.13;;
38779;SDS011;29273;49.962;9.768;2022-08-11T02:53:39;1.73;;;1.17;;
38779;SDS011;29273;49.962;9.768;2022-08-11T02:59:20;2.35;;;1.30;;
38779;SDS011;29273;49.962;9.768;2022-08-11T03:10:24;1.10;;;1.00;;
38779;SDS011;29273;49.962;9.768;2022-08-11T03:21:31;1.20;;;1.10;;
38779;SDS011;29273;49.962;9.768;2022-08-11T03:24:20;1.70;;;1.30;;
38779;SDS011;29273;49.962;9.768;2022-08-11T03:27:09;2.05;;;1.40;;
38779;SDS011;29273;49.962;9.768;2022-08-11T03:35:48;3.05;;;1.13;;
38779;SDS011;29273;49.962;9.768;2022-08-11T03:38:27;1.70;;;1.30;;
38779;SDS011;29273;49.962;9.768;2022-08-11T03:41:18;1.80;;;1.00;;
38779;SDS011;29273;49.962;9.768;2022-08-11T03:47:02;1.40;;;1.30;;
38779;SDS011;29273;49.962;9.768;2022-08-11T04:04:00;1.30;;;1.20;;
38779;SDS011;29273;49.962;9.768;2022-08-11T04:09:46;1.38;;;1.20;;
38779;SDS011;29273;49.962;9.768;2022-08-11T04:30:29;1.55;;;1.23;;
38779;SDS011;29273;49.962;9.768;2022-08-11T04:32:47;1.50;;;1.40;;
38779;SDS011;29273;49.962;9.768;2022-08-11T04:35:52;1.40;;;1.27;;
38779;SDS011;29273;49.962;9.768;2022-08-11T04:57:19;1.85;;;1.20;;
38779;SDS011;29273;49.962;9.768;2022-08-11T05:00:11;1.55;;;1.20;;
38779;SDS011;29273;49.962;9.768;2022-08-11T05:17:05;1.40;;;1.30;;
38779;SDS011;29273;49.962;9.768;2022-08-11T05:19:53;2.20;;;1.30;;
38779;SDS011;29273;49.962;9.768;2022-08-11T05:22:37;1.45;;;1.30;;
38779;SDS011;29273;49.962;9.768;2022-08-11T05:28:18;1.20;;;1.10;;
38779;SDS011;29273;49.962;9.768;2022-08-11T05:31:13;1.40;;;1.25;;
38779;SDS011;29273;49.962;9.768;2022-08-11T05:34:07;1.83;;;1.30;;
38779;SDS011;29273;49.962;9.768;2022-08-11T05:36:56;2.80;;;1.38;;
38779;SDS011;29273;49.962;9.768;2022-08-11T05:39:30;1.83;;;1.50;;
38779;SDS011;29273;49.962;9.768;2022-08-11T05:42:22;2.08;;;1.42;;
38779;SDS011;29273;49.962;9.768;2022-08-11T05:45:12;1.30;;;1.20;;
38779;SDS011;29273;49.962;9.768;2022-08-11T05:47:58;1.95;;;1.30;;
38779;SDS011;29273;49.962;9.768;2022-08-11T05:50:58;1.50;;;1.40;;
38779;SDS011;29273;49.962;9.768;2022-08-11T05:54:06;1.30;;;1.20;;
38779;SDS011;29273;49.962;9.768;2022-08-11T05:56:53;1.58;;;1.48;;
38779;SDS011;29273;49.962;9.768;2022-08-11T05:59:21;1.20;;;1.10;;
38779;SDS011;29273;49.962;9.768;2022-08-11T06:01:50;1.38;;;1.27;;
38779;SDS011;29273;49.962;9.768;2022-08-11T06:04:20;1.40;;;1.30;;
38779;SDS011;29273;49.962;9.768;2022-08-11T06:11:54;1.88;;;1.40;;
38779;SDS011;29273;49.962;9.768;2022-08-11T06:14:23;2.03;;;1.35;;
38779;SDS011;29273;49.962;9.768;2022-08-11T06:16:51;1.73;;;1.60;;
38779;SDS011;29273;49.962;9.768;2022-08-11T06:19:21;2.53;;;1.50;;
38779;SDS011;29273;49.962;9.768;2022-08-11T06:21:47;2.75;;;1.58;;
38779;SDS011;29273;49.962;9.768;2022-08-11T06:24:16;2.63;;;1.48;;
38779;SDS011;29273;49.962;9.768;2022-08-11T06:26:49;2.97;;;1.42;;
38779;SDS011;29273;49.962;9.768;2022-08-11T06:29:17;2.00;;;1.30;;
38779;SDS011;29273;49.962;9.768;2022-08-11T06:31:50;2.30;;;1.45;;
38779;SDS011;29273;49.962;9.768;2022-08-11T06:37:13;1.55;;;1.35;;
38779;SDS011;29273;49.962;9.768;2022-08-11T06:42:27;1.65;;;1.50;;
38779;SDS011;29273;49.962;9.768;2022-08-11T06:45:08;2.22;;;1.40;;
38779;SDS011;29273;49.962;9.768;2022-08-11T06:47:44;1.30;;;1.20;;
38779;SDS011;29273;49.962;9.768;2022-08-11T06:50:14;2.78;;;1.20;;
38779;SDS011;29273;49.962;9.768;2022-08-11T06:53:01;1.35;;;1.25;;
38779;SDS011;29273;49.962;9.768;2022-08-11T06:55:29;1.67;;;1.30;;
38779;SDS011;29273;49.962;9.768;2022-08-11T06:58:17;1.83;;;1.30;;
38779;SDS011;29273;49.962;9.768;2022-08-11T07:01:06;2.00;;;1.27;;
38779;SDS011;29273;49.962;9.768;2022-08-11T07:03:39;1.90;;;1.10;;
38779;SDS011;29273;49.962;9.768;2022-08-11T07:06:14;1.10;;;0.90;;
38779;SDS011;29273;49.962;9.768;2022-08-11T07:12:04;1.30;;;1.17;;
38779;SDS011;29273;49.962;9.768;2022-08-11T07:15:08;2.10;;;1.30;;
38779;SDS011;29273;49.962;9.768;2022-08-11T07:17:55;2.53;;;1.00;;
38779;SDS011;29273;49.962;9.768;2022-08-11T07:20:44;1.35;;;1.00;;
38779;SDS011;29273;49.962;9.768;2022-08-11T07:23:30;1.92;;;1.30;;
38779;SDS011;29273;49.962;9.768;2022-08-11T07:26:18;1.10;;;0.98;;
38779;SDS011;29273;49.962;9.768;2022-08-11T07:29:05;1.38;;;1.20;;
38779;SDS011;29273;49.962;9.768;2022-08-11T07:36:41;1.30;;;0.95;;
38779;SDS011;29273;49.962;9.768;2022-08-11T07:39:14;1.08;;;1.00;;
38779;SDS011;29273;49.962;9.768;2022-08-11T07:41:45;2.85;;;1.23;;
38779;SDS011;29273;49.962;9.768;2022-08-11T07:44:13;0.93;;;0.90;;
38779;SDS011;29273;49.962;9.768;2022-08-11T07:46:41;0.98;;;0.88;;
38779;SDS011;29273;49.962;9.768;2022-08-11T07:49:27;1.02;;;1.00;;
38779;SDS011;29273;49.962;9.768;2022-08-11T07:52:14;1.58;;;1.27;;
38779;SDS011;29273;49.962;9.768;2022-08-11T07:55:15;1.00;;;0.90;;
38779;SDS011;29273;49.962;9.768;2022-08-11T07:57:44;1.27;;;0.88;;
38779;SDS011;29273;49.962;9.768;2022-08-11T08:00:39;1.23;;;1.00;;
38779;SDS011;29273;49.962;9.768;2022-08-11T08:03:28;0.80;;;0.80;;
38779;SDS011;29273;49.962;9.768;2022-08-11T08:06:13;0.80;;;0.80;;
38779;SDS011;29273;49.962;9.768;2022-08-11T08:09:00;1.05;;;0.90;;
38779;SDS011;29273;49.962;9.768;2022-08-11T08:11:45;1.67;;;1.00;;
38779;SDS011;29273;49.962;9.768;2022-08-11T08:14:30;0.80;;;0.80;;
38779;SDS011;29273;49.962;9.768;2022-08-11T08:17:14;1.10;;;1.00;;
38779;SDS011;29273;49.962;9.768;2022-08-11T08:19:59;1.73;;;0.90;;
38779;SDS011;29273;49.962;9.768;2022-08-11T08:22:25;0.98;;;0.90;;
38779;SDS011;29273;49.962;9.768;2022-08-11T08:24:51;2.38;;;1.10;;
38779;SDS011;29273;49.962;9.768;2022-08-11T08:27:18;1.10;;;0.90;;
38779;SDS011;29273;49.962;9.768;2022-08-11T08:29:45;0.82;;;0.82;;
38779;SDS011;29273;49.962;9.768;2022-08-11T08:32:31;1.17;;;1.00;;
38779;SDS011;29273;49.962;9.768;2022-08-11T08:34:59;1.00;;;0.90;;
38779;SDS011;29273;49.962;9.768;2022-08-11T08:37:26;1.67;;;0.90;;
38779;SDS011;29273;49.962;9.768;2022-08-11T08:39:51;1.58;;;1.10;;
38779;SDS011;29273;49.962;9.768;2022-08-11T08:42:24;1.30;;;0.98;;
38779;SDS011;29273;49.962;9.768;2022-08-11T08:45:01;1.00;;;0.90;;
38779;SDS011;29273;49.962;9.768;2022-08-11T08:47:30;2.05;;;0.90;;
38779;SDS011;29273;49.962;9.768;2022-08-11T08:50:02;1.08;;;0.80;;
38779;SDS011;29273;49.962;9.768;2022-08-11T08:52:33;2.40;;;1.02;;
38779;SDS011;29273;49.962;9.768;2022-08-11T08:55:05;1.30;;;1.05;;
38779;SDS011;29273;49.962;9.768;2022-08-11T08:57:34;1.05;;;0.93;;
38779;SDS011;29273;49.962;9.768;2022-08-11T09:00:01;0.95;;;0.90;;
38779;SDS011;29273;49.962;9.768;2022-08-11T09:02:28;1.27;;;1.05;;
38779;SDS011;29273;49.962;9.768;2022-08-11T09:04:54;0.98;;;0.80;;
38779;SDS011;29273;49.962;9.768;2022-08-11T09:07:21;0.98;;;0.90;;
38779;SDS011;29273;49.962;9.768;2022-08-11T09:09:49;1.00;;;0.90;;
38779;SDS011;29273;49.962;9.768;2022-08-11T09:12:17;1.35;;;1.10;;
38779;SDS011;29273;49.962;9.768;2022-08-11T09:14:45;2.08;;;1.02;;
38779;SDS011;29273;49.962;9.768;2022-08-11T09:17:26;1.60;;;1.10;;
38779;SDS011;29273;49.962;9.768;2022-08-11T09:19:55;1.65;;;0.98;;
38779;SDS011;29273;49.962;9.768;2022-08-11T09:22:27;1.08;;;0.98;;
38779;SDS011;29273;49.962;9.768;2022-08-11T09:25:15;0.95;;;0.93;;
38779;SDS011;29273;49.962;9.768;2022-08-11T09:28:01;1.05;;;0.95;;
38779;SDS011;29273;49.962;9.768;2022-08-11T09:30:29;1.58;;;1.10;;
38779;SDS011;29273;49.962;9.768;2022-08-11T09:32:56;0.98;;;0.90;;
38779;SDS011;29273;49.962;9.768;2022-08-11T09:35:28;1.20;;;1.10;;
38779;SDS011;29273;49.962;9.768;2022-08-11T09:37:55;1.33;;;1.00;;
38779;SDS011;29273;49.962;9.768;2022-08-11T09:40:44;2.42;;;1.40;;
38779;SDS011;29273;49.962;9.768;2022-08-11T09:43:12;1.77;;;1.40;;
38779;SDS011;29273;49.962;9.768;2022-08-11T09:45:58;2.42;;;1.25;;
38779;SDS011;29273;49.962;9.768;2022-08-11T09:48:25;1.33;;;1.20;;
38779;SDS011;29273;49.962;9.768;2022-08-11T09:50:54;1.20;;;1.10;;
38779;SDS011;29273;49.962;9.768;2022-08-11T09:53:23;1.13;;;1.02;;
38779;SDS011;29273;49.962;9.768;2022-08-11T09:55:51;1.13;;;1.02;;
38779;SDS011;29273;49.962;9.768;2022-08-11T09:58:17;1.05;;;1.00;;
38779;SDS011;29273;49.962;9.768;2022-08-11T10:00:46;1.42;;;1.20;;
38779;SDS011;29273;49.962;9.768;2022-08-11T10:03:17;1.08;;;0.98;;
38779;SDS011;29273;49.962;9.768;2022-08-11T10:05:46;6.40;;;1.40;;
38779;SDS011;29273;49.962;9.768;2022-08-11T10:08:32;2.90;;;1.00;;
38779;SDS011;29273;49.962;9.768;2022-08-11T10:11:01;0.95;;;0.95;;
38779;SDS011;29273;49.962;9.768;2022-08-11T10:13:29;1.58;;;1.15;;
38779;SDS011;29273;49.962;9.768;2022-08-11T10:16:00;0.98;;;0.93;;
38779;SDS011;29273;49.962;9.768;2022-08-11T10:18:39;1.20;;;1.10;;
38779;SDS011;29273;49.962;9.768;2022-08-11T10:23:38;1.25;;;0.90;;
38779;SDS011;29273;49.962;9.768;2022-08-11T10:26:23;8.20;;;1.40;;
38779;SDS011;29273;49.962;9.768;2022-08-11T10:29:10;0.80;;;0.80;;
38779;SDS011;29273;49.962;9.768;2022-08-11T10:31:56;0.88;;;0.88;;
38779;SDS011;29273;49.962;9.768;2022-08-11T10:34:42;2.10;;;1.30;;
38779;SDS011;29273;49.962;9.768;2022-08-11T10:37:09;1.45;;;1.02;;
38779;SDS011;29273;49.962;9.768;2022-08-11T10:39:36;1.27;;;1.17;;
38779;SDS011;29273;49.962;9.768;2022-08-11T10:42:04;0.95;;;0.80;;
38779;SDS011;29273;49.962;9.768;2022-08-11T10:44:52;1.70;;;1.38;;
38779;SDS011;29273;49.962;9.768;2022-08-11T10:47:19;1.17;;;1.08;;
38779;SDS011;29273;49.962;9.768;2022-08-11T10:50:06;1.52;;;1.10;;
38779;SDS011;29273;49.962;9.768;2022-08-11T10:52:53;1.00;;;1.00;;
38779;SDS011;29273;49.962;9.768;2022-08-11T10:55:41;1.27;;;1.00;;
38779;SDS011;29273;49.962;9.768;2022-08-11T10:58:27;1.30;;;1.00;;
38779;SDS011;29273;49.962;9.768;2022-08-11T11:01:11;2.35;;;1.10;;
38779;SDS011;29273;49.962;9.768;2022-08-11T11:03:38;3.58;;;1.52;;
38779;SDS011;29273;49.962;9.768;2022-08-11T11:06:14;1.02;;;0.93;;
38779;SDS011;29273;49.962;9.768;2022-08-11T11:08:51;0.98;;;0.90;;
38779;SDS011;29273;49.962;9.768;2022-08-11T11:11:26;1.17;;;0.95;;
38779;SDS011;29273;49.962;9.768;2022-08-11T11:14:16;1.05;;;0.98;;
38779;SDS011;29273;49.962;9.768;2022-08-11T11:17:03;0.93;;;0.88;;
38779;SDS011;29273;49.962;9.768;2022-08-11T11:19:33;1.00;;;0.88;;
38779;SDS011;29273;49.962;9.768;2022-08-11T11:22:02;0.80;;;0.80;;
38779;SDS011;29273;49.962;9.768;2022-08-11T11:24:59;2.25;;;0.88;;
38779;SDS011;29273;49.962;9.768;2022-08-11T11:27:47;0.93;;;0.93;;
38779;SDS011;29273;49.962;9.768;2022-08-11T11:30:26;1.15;;;0.90;;
38779;SDS011;29273;49.962;9.768;2022-08-11T11:33:05;1.25;;;1.15;;
38779;SDS011;29273;49.962;9.768;2022-08-11T11:38:31;1.00;;;1.00;;
38779;SDS011;29273;49.962;9.768;2022-08-11T11:40:57;1.20;;;1.10;;
38779;SDS011;29273;49.962;9.768;2022-08-11T11:43:41;1.10;;;1.00;;
38779;SDS011;29273;49.962;9.768;2022-08-11T11:46:10;1.33;;;1.00;;
38779;SDS011;29273;49.962;9.768;2022-08-11T11:48:35;1.10;;;0.93;;
38779;SDS011;29273;49.962;9.768;2022-08-11T11:51:01;0.80;;;0.80;;
38779;SDS011;29273;49.962;9.768;2022-08-11T11:53:27;1.00;;;0.90;;
38779;SDS011;29273;49.962;9.768;2022-08-11T11:55:54;0.80;;;0.80;;
38779;SDS011;29273;49.962;9.768;2022-08-11T11:58:20;1.08;;;0.98;;
38779;SDS011;29273;49.962;9.768;2022-08-11T12:01:05;0.90;;;0.90;;
38779;SDS011;29273;49.962;9.768;2022-08-11T12:03:40;0.70;;;0.68;;
38779;SDS011;29273;49.962;9.768;2022-08-11T12:06:09;1.02;;;0.75;;
38779;SDS011;29273;49.962;9.768;2022-08-11T12:08:38;1.00;;;0.90;;
38779;SDS011;29273;49.962;9.768;2022-08-11T12:11:09;2.08;;;0.90;;
38779;SDS011;29273;49.962;9.768;2022-08-11T12:13:54;1.38;;;0.80;;
38779;SDS011;29273;49.962;9.768;2022-08-11T12:16:22;1.20;;;0.90;;
38779;SDS011;29273;49.962;9.768;2022-08-11T12:18:49;1.30;;;1.00;;
38779;SDS011;29273;49.962;9.768;2022-08-11T12:21:18;0.80;;;0.70;;
38779;SDS011;29273;49.962;9.768;2022-08-11T12:23:45;1.30;;;0.70;;
38779;SDS011;29273;49.962;9.768;2022-08-11T12:26:30;1.10;;;1.00;;
38779;SDS011;29273;49.962;9.768;2022-08-11T12:29:17;1.17;;;0.88;;
38779;SDS011;29273;49.962;9.768;2022-08-11T12:31:44;0.93;;;0.82;;
38779;SDS011;29273;49.962;9.768;2022-08-11T12:34:11;1.00;;;0.90;;
38779;SDS011;29273;49.962;9.768;2022-08-11T12:36:42;1.88;;;0.80;;
38779;SDS011;29273;49.962;9.768;2022-08-11T12:39:18;1.00;;;0.80;;
38779;SDS011;29273;49.962;9.768;2022-08-11T12:41:45;0.93;;;0.88;;
38779;SDS011;29273;49.962;9.768;2022-08-11T12:44:30;1.10;;;0.85;;
38779;SDS011;29273;49.962;9.768;2022-08-11T12:47:18;0.98;;;0.90;;
38779;SDS011;29273;49.962;9.768;2022-08-11T12:49:48;2.40;;;1.17;;
38779;SDS011;29273;49.962;9.768;2022-08-11T12:52:40;0.80;;;0.80;;
38779;SDS011;29273;49.962;9.768;2022-08-11T12:55:10;0.93;;;0.90;;
38779;SDS011;29273;49.962;9.768;2022-08-11T12:57:58;0.98;;;0.95;;
38779;SDS011;29273;49.962;9.768;2022-08-11T13:00:43;0.88;;;0.80;;
38779;SDS011;29273;49.962;9.768;2022-08-11T13:03:28;1.10;;;1.00;;
38779;SDS011;29273;49.962;9.768;2022-08-11T13:06:16;1.30;;;0.80;;
38779;SDS011;29273;49.962;9.768;2022-08-11T13:08:43;0.93;;;0.90;;
38779;SDS011;29273;49.962;9.768;2022-08-11T13:11:10;1.17;;;0.90;;
38779;SDS011;29273;49.962;9.768;2022-08-11T13:13:55;0.90;;;0.80;;
38779;SDS011;29273;49.962;9.768;2022-08-11T13:16:22;2.78;;;0.90;;
38779;SDS011;29273;49.962;9.768;2022-08-11T13:18:50;0.88;;;0.80;;
38779;SDS011;29273;49.962;9.768;2022-08-11T13:21:16;1.13;;;1.02;;
38779;SDS011;29273;49.962;9.768;2022-08-11T13:23:43;1.85;;;0.80;;
38779;SDS011;29273;49.962;9.768;2022-08-11T13:26:09;1.10;;;0.90;;
38779;SDS011;29273;49.962;9.768;2022-08-11T13:28:35;0.88;;;0.88;;
38779;SDS011;29273;49.962;9.768;2022-08-11T13:31:02;1.17;;;0.82;;
38779;SDS011;29273;49.962;9.768;2022-08-11T13:36:13;0.98;;;0.95;;
38779;SDS011;29273;49.962;9.768;2022-08-11T13:38:43;1.80;;;0.90;;
38779;SDS011;29273;49.962;9.768;2022-08-11T13:41:09;2.33;;;1.10;;
38779;SDS011;29273;49.962;9.768;2022-08-11T13:43:53;0.85;;;0.85;;
38779;SDS011;29273;49.962;9.768;2022-08-11T13:46:21;1.35;;;1.10;;
38779;SDS011;29273;49.962;9.768;2022-08-11T13:48:52;1.10;;;0.70;;
38779;SDS011;29273;49.962;9.768;2022-08-11T13:51:19;1.83;;;0.90;;
38779;SDS011;29273;49.962;9.768;2022-08-11T13:54:05;0.70;;;0.70;;
38779;SDS011;29273;49.962;9.768;2022-08-11T13:56:52;0.75;;;0.75;;
38779;SDS011;29273;49.962;9.768;2022-08-11T13:59:20;1.20;;;0.80;;
38779;SDS011;29273;49.962;9.768;2022-08-11T14:01:49;1.13;;;0.82;;
38779;SDS011;29273;49.962;9.768;2022-08-11T14:04:21;1.30;;;0.93;;
38779;SDS011;29273;49.962;9.768;2022-08-11T14:06:52;0.85;;;0.85;;
38779;SDS011;29273;49.962;9.768;2022-08-11T14:09:20;0.95;;;0.77;;
38779;SDS011;29273;49.962;9.768;2022-08-11T14:11:49;1.23;;;0.90;;
38779;SDS011;29273;49.962;9.768;2022-08-11T14:14:35;1.05;;;0.68;;
38779;SDS011;29273;49.962;9.768;2022-08-11T14:17:03;1.00;;;0.70;;
38779;SDS011;29273;49.962;9.768;2022-08-11T14:19:43;0.80;;;0.80;;
38779;SDS011;29273;49.962;9.768;2022-08-11T14:22:12;0.80;;;0.80;;
38779;SDS011;29273;49.962;9.768;2022-08-11T14:24:41;1.52;;;0.80;;
38779;SDS011;29273;49.962;9.768;2022-08-11T14:27:13;0.80;;;0.80;;
38779;SDS011;29273;49.962;9.768;2022-08-11T14:29:40;0.63;;;0.63;;
38779;SDS011;29273;49.962;9.768;2022-08-11T14:32:08;0.60;;;0.60;;
38779;SDS011;29273;49.962;9.768;2022-08-11T14:34:38;0.82;;;0.82;;
38779;SDS011;29273;49.962;9.768;2022-08-11T14:37:08;0.80;;;0.80;;
38779;SDS011;29273;49.962;9.768;2022-08-11T14:42:11;0.63;;;0.63;;
38779;SDS011;29273;49.962;9.768;2022-08-11T14:44:58;0.70;;;0.70;;
38779;SDS011;29273;49.962;9.768;2022-08-11T14:47:47;0.63;;;0.63;;
38779;SDS011;29273;49.962;9.768;2022-08-11T14:50:17;0.57;;;0.57;;
38779;SDS011;29273;49.962;9.768;2022-08-11T14:52:51;1.30;;;0.77;;
38779;SDS011;29273;49.962;9.768;2022-08-11T14:55:23;0.95;;;0.90;;
38779;SDS011;29273;49.962;9.768;2022-08-11T14:58:10;0.82;;;0.82;;
38779;SDS011;29273;49.962;9.768;2022-08-11T15:00:37;1.00;;;0.80;;
38779;SDS011;29273;49.962;9.768;2022-08-11T15:03:05;0.60;;;0.60;;
38779;SDS011;29273;49.962;9.768;2022-08-11T15:05:34;1.27;;;0.95;;
38779;SDS011;29273;49.962;9.768;2022-08-11T15:08:05;1.10;;;1.00;;
38779;SDS011;29273;49.962;9.768;2022-08-11T15:10:32;0.80;;;0.80;;
38779;SDS011;29273;49.962;9.768;2022-08-11T15:12:58;0.70;;;0.70;;
38779;SDS011;29273;49.962;9.768;2022-08-11T15:15:25;1.02;;;0.85;;
38779;SDS011;29273;49.962;9.768;2022-08-11T15:18:10;0.80;;;0.73;;
38779;SDS011;29273;49.962;9.768;2022-08-11T15:20:41;0.75;;;0.75;;
38779;SDS011;29273;49.962;9.768;2022-08-11T15:23:27;2.35;;;0.70;;
38779;SDS011;29273;49.962;9.768;2022-08-11T15:26:13;0.65;;;0.65;;
38779;SDS011;29273;49.962;9.768;2022-08-11T15:28:44;0.75;;;0.60;;
38779;SDS011;29273;49.962;9.768;2022-08-11T15:31:30;0.75;;;0.75;;
38779;SDS011;29273;49.962;9.768;2022-08-11T15:34:07;1.95;;;0.85;;
38779;SDS011;29273;49.962;9.768;2022-08-11T15:36:57;3.55;;;0.80;;
38779;SDS011;29273;49.962;9.768;2022-08-11T15:42:49;0.70;;;0.70;;
38779;SDS011;29273;49.962;9.768;2022-08-11T15:45:39;0.80;;;0.80;;
38779;SDS011;29273;49.962;9.768;2022-08-11T15:48:38;0.85;;;0.70;;
38779;SDS011;29273;49.962;9.768;2022-08-11T15:51:10;1.17;;;1.08;;
38779;SDS011;29273;49.962;9.768;2022-08-11T15:56:10;0.95;;;0.88;;
38779;SDS011;29273;49.962;9.768;2022-08-11T15:58:38;1.25;;;1.08;;
38779;SDS011;29273;49.962;9.768;2022-08-11T16:01:24;0.88;;;0.88;;
38779;SDS011;29273;49.962;9.768;2022-08-11T16:04:13;0.77;;;0.77;;
38779;SDS011;29273;49.962;9.768;2022-08-11T16:06:58;0.63;;;0.63;;
38779;SDS011;29273;49.962;9.768;2022-08-11T16:12:06;0.85;;;0.85;;
38779;SDS011;29273;49.962;9.768;2022-08-11T16:14:36;0.90;;;0.70;;
38779;SDS011;29273;49.962;9.768;2022-08-11T16:17:25;1.42;;;0.80;;
38779;SDS011;29273;49.962;9.768;2022-08-11T16:19:55;0.75;;;0.70;;
38779;SDS011;29273;49.962;9.768;2022-08-11T16:22:26;1.02;;;0.80;;
38779;SDS011;29273;49.962;9.768;2022-08-11T16:25:07;1.00;;;0.90;;
38779;SDS011;29273;49.962;9.768;2022-08-11T16:27:37;0.90;;;0.90;;
38779;SDS011;29273;49.962;9.768;2022-08-11T16:30:05;0.98;;;0.70;;
38779;SDS011;29273;49.962;9.768;2022-08-11T16:32:32;1.25;;;0.70;;
38779;SDS011;29273;49.962;9.768;2022-08-11T16:35:02;0.98;;;0.70;;
38779;SDS011;29273;49.962;9.768;2022-08-11T16:37:49;0.70;;;0.70;;
38779;SDS011;29273;49.962;9.768;2022-08-11T16:40:35;1.20;;;0.88;;
38779;SDS011;29273;49.962;9.768;2022-08-11T16:43:04;1.27;;;0.88;;
38779;SDS011;29273;49.962;9.768;2022-08-11T16:45:50;0.50;;;0.50;;
38779;SDS011;29273;49.962;9.768;2022-08-11T16:48:36;0.65;;;0.65;;
38779;SDS011;29273;49.962;9.768;2022-08-11T16:51:03;0.70;;;0.70;;
38779;SDS011;29273;49.962;9.768;2022-08-11T16:53:32;0.95;;;0.80;;
38779;SDS011;29273;49.962;9.768;2022-08-11T16:55:58;1.23;;;1.00;;
38779;SDS011;29273;49.962;9.768;2022-08-11T16:58:29;0.80;;;0.73;;
38779;SDS011;29273;49.962;9.768;2022-08-11T17:01:15;0.73;;;0.70;;
38779;SDS011;29273;49.962;9.768;2022-08-11T17:03:45;0.88;;;0.80;;
38779;SDS011;29273;49.962;9.768;2022-08-11T17:06:34;0.73;;;0.73;;
38779;SDS011;29273;49.962;9.768;2022-08-11T17:09:23;1.35;;;0.80;;
38779;SDS011;29273;49.962;9.768;2022-08-11T17:12:09;1.88;;;0.98;;
38779;SDS011;29273;49.962;9.768;2022-08-11T17:14:57;0.73;;;0.70;;
38779;SDS011;29273;49.962;9.768;2022-08-11T17:17:31;0.60;;;0.60;;
38779;SDS011;29273;49.962;9.768;2022-08-11T17:20:02;0.88;;;0.85;;
38779;SDS011;29273;49.962;9.768;2022-08-11T17:22:35;1.10;;;1.02;;
38779;SDS011;29273;49.962;9.768;2022-08-11T17:25:20;1.02;;;1.00;;
38779;SDS011;29273;49.962;9.768;2022-08-11T17:27:49;0.85;;;0.73;;
38779;SDS011;29273;49.962;9.768;2022-08-11T17:30:18;1.25;;;0.77;;
38779;SDS011;29273;49.962;9.768;2022-08-11T17:32:46;0.90;;;0.80;;
38779;SDS011;29273;49.962;9.768;2022-08-11T17:35:33;0.88;;;0.70;;
38779;SDS011;29273;49.962;9.768;2022-08-11T17:38:07;1.45;;;0.60;;
38779;SDS011;29273;49.962;9.768;2022-08-11T17:40:40;1.00;;;0.80;;
38779;SDS011;29273;49.962;9.768;2022-08-11T17:43:29;1.17;;;1.00;;
38779;SDS011;29273;49.962;9.768;2022-08-11T17:46:15;0.68;;;0.68;;
38779;SDS011;29273;49.962;9.768;2022-08-11T17:49:02;1.38;;;0.80;;
38779;SDS011;29273;49.962;9.768;2022-08-11T17:51:31;1.10;;;0.77;;
38779;SDS011;29273;49.962;9.768;2022-08-11T17:54:17;0.70;;;0.70;;
38779;SDS011;29273;49.962;9.768;2022-08-11T17:57:04;2.03;;;0.80;;
38779;SDS011;29273;49.962;9.768;2022-08-11T17:59:51;1.23;;;0.85;;
38779;SDS011;29273;49.962;9.768;2022-08-11T18:02:21;0.80;;;0.80;;
38779;SDS011;29273;49.962;9.768;2022-08-11T18:05:10;0.73;;;0.70;;
38779;SDS011;29273;49.962;9.768;2022-08-11T18:07:36;0.70;;;0.70;;
38779;SDS011;29273;49.962;9.768;2022-08-11T18:10:23;1.10;;;0.98;;
38779;SDS011;29273;49.962;9.768;2022-08-11T18:13:08;1.15;;;0.90;;
38779;SDS011;29273;49.962;9.768;2022-08-11T18:15:53;0.70;;;0.60;;
38779;SDS011;29273;49.962;9.768;2022-08-11T18:18:36;0.75;;;0.60;;
38779;SDS011;29273;49.962;9.768;2022-08-11T18:21:20;1.20;;;0.80;;
38779;SDS011;29273;49.962;9.768;2022-08-11T18:24:07;1.02;;;0.88;;
38779;SDS011;29273;49.962;9.768;2022-08-11T18:26:55;0.90;;;0.85;;
38779;SDS011;29273;49.962;9.768;2022-08-11T18:29:42;2.15;;;1.92;;
38779;SDS011;29273;49.962;9.768;2022-08-11T18:32:30;1.88;;;1.70;;
38779;SDS011;29273;49.962;9.768;2022-08-11T18:35:17;3.70;;;1.70;;
38779;SDS011;29273;49.962;9.768;2022-08-11T18:38:03;1.45;;;1.33;;
38779;SDS011;29273;49.962;9.768;2022-08-11T18:40:51;1.80;;;1.55;;
38779;SDS011;29273;49.962;9.768;2022-08-11T18:43:37;1.90;;;1.20;;
38779;SDS011;29273;49.962;9.768;2022-08-11T18:46:25;1.30;;;1.02;;
38779;SDS011;29273;49.962;9.768;2022-08-11T18:49:13;1.27;;;0.93;;
38779;SDS011;29273;49.962;9.768;2022-08-11T18:52:00;1.00;;;0.90;;
38779;SDS011;29273;49.962;9.768;2022-08-11T18:54:46;1.15;;;0.80;;
38779;SDS011;29273;49.962;9.768;2022-08-11T18:57:33;1.25;;;0.90;;
38779;SDS011;29273;49.962;9.768;2022-08-11T19:00:22;1.17;;;0.60;;
38779;SDS011;29273;49.962;9.768;2022-08-11T19:03:09;1.88;;;0.60;;
38779;SDS011;29273;49.962;9.768;2022-08-11T19:05:55;1.63;;;0.80;;
38779;SDS011;29273;49.962;9.768;2022-08-11T19:08:44;1.67;;;0.90;;
38779;SDS011;29273;49.962;9.768;2022-08-11T19:11:31;0.80;;;0.77;;
38779;SDS011;29273;49.962;9.768;2022-08-11T19:14:16;0.70;;;0.70;;
38779;SDS011;29273;49.962;9.768;2022-08-11T19:17:03;2.35;;;0.60;;
38779;SDS011;29273;49.962;9.768;2022-08-11T19:19:50;1.13;;;0.60;;
38779;SDS011;29273;49.962;9.768;2022-08-11T19:22:37;1.10;;;1.00;;
38779;SDS011;29273;49.962;9.768;2022-08-11T19:25:22;2.03;;;0.77;;
38779;SDS011;29273;49.962;9.768;2022-08-11T19:28:08;1.20;;;0.98;;